createdAt,value
2018-07-08T00:00:45.817Z,6.07
2018-07-08T00:03:14.896Z,5.80
2018-07-08T00:05:44.071Z,5.83
2018-07-08T00:08:12.848Z,6.03
2018-07-08T00:10:48.360Z,6.80
2018-07-08T00:13:17.507Z,6.13
2018-07-08T00:15:46.651Z,7.07
2018-07-08T00:18:16.126Z,7.50
2018-07-08T00:20:45.212Z,7.53
2018-07-08T00:23:14.139Z,7.00
2018-07-08T00:25:43.403Z,8.67
2018-07-08T00:28:12.481Z,9.30
2018-07-08T00:30:41.881Z,10.50
2018-07-08T00:33:11.499Z,10.03
2018-07-08T00:35:40.829Z,10.23
2018-07-08T00:38:09.892Z,10.93
2018-07-08T00:40:39.025Z,11.37
2018-07-08T00:43:08.084Z,13.60
2018-07-08T00:45:37.479Z,12.47
2018-07-08T00:48:06.564Z,13.27
2018-07-08T00:50:35.608Z,13.10
2018-07-08T00:53:04.975Z,12.77
2018-07-08T00:55:34.027Z,14.80
2018-07-08T00:58:03.107Z,15.80
2018-07-08T01:00:36.487Z,17.47
2018-07-08T01:03:06.856Z,16.33
2018-07-08T01:05:36.156Z,17.50
2018-07-08T01:08:05.440Z,18.27
2018-07-08T01:10:34.705Z,19.17
2018-07-08T01:13:03.626Z,19.00
2018-07-08T01:15:32.676Z,19.23
2018-07-08T01:18:01.823Z,18.77
2018-07-08T01:20:30.896Z,19.97
2018-07-08T01:23:00.203Z,22.27
2018-07-08T01:25:40.392Z,22.63
2018-07-08T01:28:09.575Z,23.80
2018-07-08T01:30:38.846Z,22.97
2018-07-08T01:33:08.022Z,23.07
2018-07-08T01:35:37.163Z,25.50
2018-07-08T01:38:06.467Z,25.83
2018-07-08T01:40:35.194Z,24.50
2018-07-08T01:43:04.156Z,23.23
2018-07-08T01:45:33.175Z,26.50
2018-07-08T01:48:02.244Z,26.80
2018-07-08T01:50:31.259Z,24.73
2018-07-08T01:53:00.327Z,25.97
2018-07-08T01:55:29.395Z,25.33
2018-07-08T01:57:58.498Z,27.17
2018-07-08T02:00:27.569Z,27.73
2018-07-08T02:02:56.859Z,27.90
2018-07-08T02:05:25.932Z,31.90
2018-07-08T02:07:55.003Z,30.17
2018-07-08T02:10:24.044Z,31.60
2018-07-08T02:12:53.138Z,32.03
2018-07-08T02:15:23.096Z,31.60
2018-07-08T02:17:52.204Z,31.10
2018-07-08T02:20:22.167Z,30.80
2018-07-08T02:22:51.247Z,31.57
2018-07-08T02:25:20.618Z,29.90
2018-07-08T02:27:50.064Z,32.50
2018-07-08T02:30:19.404Z,35.27
2018-07-08T02:32:48.432Z,33.17
2018-07-08T02:35:17.526Z,35.60
2018-07-08T02:37:46.571Z,34.57
2018-07-08T02:40:15.604Z,32.00
2018-07-08T02:42:44.709Z,33.57
2018-07-08T02:45:14.016Z,31.33
2018-07-08T02:47:43.135Z,29.17
2018-07-08T02:50:12.234Z,28.17
2018-07-08T02:52:41.414Z,28.00
2018-07-08T02:55:10.436Z,29.63
2018-07-08T02:57:39.461Z,28.57
2018-07-08T03:00:08.512Z,29.03
2018-07-08T03:02:37.533Z,30.33
2018-07-08T03:05:06.892Z,29.00
2018-07-08T03:07:35.943Z,27.43
2018-07-08T03:10:05.035Z,28.97
2018-07-08T03:12:34.047Z,25.13
2018-07-08T03:15:03.428Z,24.87
2018-07-08T03:17:32.459Z,24.30
2018-07-08T03:20:01.535Z,23.43
2018-07-08T03:22:30.588Z,22.57
2018-07-08T03:24:59.601Z,22.57
2018-07-08T03:27:28.786Z,22.37
2018-07-08T03:29:57.843Z,22.53
2018-07-08T03:32:26.856Z,19.90
2018-07-08T03:34:55.879Z,21.17
2018-07-08T03:37:24.903Z,19.70
2018-07-08T03:39:53.921Z,18.90
2018-07-08T03:42:22.935Z,19.73
2018-07-08T03:44:51.951Z,19.27
2018-07-08T03:47:20.964Z,18.20
2018-07-08T03:49:49.964Z,18.23
2018-07-08T03:52:18.688Z,16.17
2018-07-08T03:54:47.623Z,17.83
2018-07-08T03:57:16.648Z,18.07
2018-07-08T03:59:45.655Z,16.63
2018-07-08T04:02:14.676Z,17.93
2018-07-08T04:04:43.719Z,17.83
2018-07-08T04:07:12.755Z,16.90
2018-07-08T04:09:41.775Z,16.33
2018-07-08T04:12:10.790Z,16.07
2018-07-08T04:14:39.847Z,16.80
2018-07-08T04:17:08.928Z,15.40
2018-07-08T04:19:37.954Z,15.20
2018-07-08T04:22:06.980Z,15.23
2018-07-08T04:24:36.359Z,14.50
2018-07-08T04:27:05.410Z,14.07
2018-07-08T04:29:35.090Z,13.47
2018-07-08T04:32:04.124Z,13.10
2018-07-08T04:34:33.140Z,14.27
2018-07-08T04:37:02.157Z,12.10
2018-07-08T04:39:31.163Z,11.87
2018-07-08T04:42:00.417Z,11.13
2018-07-08T04:44:29.459Z,11.87
2018-07-08T04:46:58.638Z,11.73
2018-07-08T04:49:27.679Z,11.47
2018-07-08T04:51:56.695Z,10.53
2018-07-08T04:54:25.746Z,10.37
2018-07-08T04:56:54.774Z,10.37
2018-07-08T04:59:23.803Z,10.27
2018-07-08T05:01:52.823Z,10.13
2018-07-08T05:04:21.919Z,9.27
2018-07-08T05:06:50.975Z,9.03
2018-07-08T05:09:20.034Z,9.40
2018-07-08T05:11:49.060Z,9.37
2018-07-08T05:14:18.064Z,8.70
2018-07-08T05:16:47.183Z,9.13
2018-07-08T05:19:16.228Z,8.37
2018-07-08T05:21:45.265Z,7.97
2018-07-08T05:24:14.284Z,6.93
2018-07-08T05:26:43.284Z,8.17
2018-07-08T05:29:12.327Z,7.17
2018-07-08T05:31:42.131Z,7.30
2018-07-08T05:34:11.167Z,7.27
2018-07-08T05:36:40.247Z,6.03
2018-07-08T05:39:09.407Z,6.53
2018-07-08T05:41:38.411Z,5.53
2018-07-08T05:44:07.479Z,5.80
2018-07-08T05:46:36.591Z,4.87
2018-07-08T05:49:05.803Z,5.20
2018-07-08T05:51:35.029Z,5.77
2018-07-08T05:54:04.096Z,5.40
2018-07-08T05:56:33.143Z,5.80
2018-07-08T05:59:02.176Z,5.70
2018-07-08T06:01:31.538Z,5.90
2018-07-08T06:04:00.574Z,5.53
2018-07-08T06:06:29.675Z,5.07
2018-07-08T06:08:58.730Z,5.50
2018-07-08T06:11:27.768Z,4.93
2018-07-08T06:13:56.795Z,5.00
2018-07-08T06:16:25.860Z,4.53
2018-07-08T06:18:54.883Z,4.20
2018-07-08T06:21:23.955Z,3.90
2018-07-08T06:23:53.547Z,3.70
2018-07-08T06:26:22.608Z,3.80
2018-07-08T06:28:51.663Z,3.77
2018-07-08T06:31:20.679Z,3.90
2018-07-08T06:33:49.699Z,3.47
2018-07-08T06:36:18.789Z,3.73
2018-07-08T06:38:47.783Z,4.23
2018-07-08T06:41:16.827Z,3.87
2018-07-08T06:43:45.857Z,3.53
2018-07-08T06:46:14.884Z,3.27
2018-07-08T06:48:43.971Z,3.40
2018-07-08T06:51:13.035Z,3.60
2018-07-08T06:53:42.310Z,3.70
2018-07-08T06:56:11.007Z,4.60
2018-07-08T06:58:39.952Z,4.00
2018-07-08T07:01:08.990Z,4.20
2018-07-08T07:03:38.047Z,4.20
2018-07-08T07:06:07.516Z,3.80
2018-07-08T07:08:36.617Z,3.60
2018-07-08T07:11:05.712Z,3.90
2018-07-08T07:13:34.739Z,4.43
2018-07-08T07:16:04.216Z,3.37
2018-07-08T07:18:33.367Z,3.57
2018-07-08T07:21:02.578Z,3.87
2018-07-08T07:23:31.590Z,3.50
2018-07-08T07:26:00.623Z,2.90
2018-07-08T07:28:29.784Z,3.30
2018-07-08T07:30:58.818Z,3.63
2018-07-08T07:33:27.934Z,3.23
2018-07-08T07:35:57.046Z,3.33
2018-07-08T07:38:26.039Z,3.20
2018-07-08T07:40:55.033Z,3.20
2018-07-08T07:43:24.013Z,2.73
2018-07-08T07:45:55.335Z,2.90
2018-07-08T07:48:24.344Z,2.50
2018-07-08T07:50:53.605Z,2.60
2018-07-08T07:53:22.622Z,2.70
2018-07-08T07:55:51.644Z,2.93
2018-07-08T07:58:20.694Z,3.30
2018-07-08T08:00:49.762Z,2.57
2018-07-08T08:03:18.786Z,3.20
2018-07-08T08:05:47.841Z,3.60
2018-07-08T08:08:16.880Z,3.30
2018-07-08T08:10:46.310Z,3.30
2018-07-08T08:13:15.675Z,3.20
2018-07-08T08:15:44.695Z,3.17
2018-07-08T08:18:14.250Z,3.13
2018-07-08T08:20:43.014Z,3.73
2018-07-08T08:23:11.676Z,3.80
2018-07-08T08:25:40.607Z,4.30
2018-07-08T08:28:09.628Z,3.37
2018-07-08T08:30:38.671Z,3.20
2018-07-08T08:33:07.430Z,3.17
2018-07-08T08:35:36.063Z,3.80
2018-07-08T08:38:05.070Z,3.57
2018-07-08T08:40:34.111Z,3.50
2018-07-08T08:43:03.131Z,3.30
2018-07-08T08:45:32.165Z,3.77
2018-07-08T08:48:01.500Z,3.87
2018-07-08T08:50:30.696Z,3.80
2018-07-08T08:52:59.858Z,4.00
2018-07-08T08:55:28.853Z,3.87
2018-07-08T08:57:57.857Z,4.00
2018-07-08T09:00:27.105Z,4.10
2018-07-08T09:02:55.970Z,4.20
2018-07-08T09:05:24.924Z,4.30
2018-07-08T09:07:54.055Z,3.20
2018-07-08T09:10:23.113Z,3.83
2018-07-08T09:12:52.213Z,3.33
2018-07-08T09:15:21.357Z,3.23
2018-07-08T09:17:50.447Z,3.30
2018-07-08T09:20:19.532Z,3.80
2018-07-08T09:22:48.881Z,4.07
2018-07-08T09:25:18.071Z,3.67
2018-07-08T09:27:47.030Z,3.83
2018-07-08T09:30:16.534Z,3.40
2018-07-08T09:32:46.431Z,3.80
2018-07-08T09:35:16.646Z,3.60
2018-07-08T09:37:46.000Z,3.40
2018-07-08T09:40:15.156Z,3.30
2018-07-08T09:42:44.612Z,3.80
2018-07-08T09:45:13.956Z,3.77
2018-07-08T09:47:42.975Z,4.17
2018-07-08T09:50:11.700Z,3.50
2018-07-08T09:52:40.702Z,3.40
2018-07-08T09:55:09.639Z,3.70
2018-07-08T09:57:38.703Z,3.30
2018-07-08T10:00:07.771Z,3.20
2018-07-08T10:02:36.791Z,3.30
2018-07-08T10:05:06.216Z,3.13
2018-07-08T10:07:35.590Z,3.40
2018-07-08T10:10:04.254Z,2.93
2018-07-08T10:12:33.208Z,2.90
2018-07-08T10:15:02.535Z,2.98
2018-07-08T10:17:31.800Z,2.72
2018-07-08T10:20:00.821Z,2.60
2018-07-08T10:22:30.031Z,2.80
2018-07-08T10:24:59.094Z,2.77
2018-07-08T10:28:36.651Z,2.55
2018-07-08T10:31:10.321Z,2.72
2018-07-08T10:33:56.635Z,2.77
2018-07-08T10:36:25.853Z,3.00
2018-07-08T10:38:54.883Z,2.80
2018-07-08T10:41:23.930Z,2.40
2018-07-08T10:43:52.996Z,2.60
2018-07-08T10:46:22.099Z,2.72
2018-07-08T10:48:51.343Z,2.95
2018-07-08T10:51:20.779Z,2.70
2018-07-08T10:53:49.795Z,2.80
2018-07-08T10:56:19.339Z,2.27
2018-07-08T10:58:48.387Z,2.33
2018-07-08T11:01:17.470Z,2.60
2018-07-08T11:03:46.487Z,2.55
2018-07-08T11:06:15.775Z,2.45
2018-07-08T11:08:44.823Z,2.47
2018-07-08T11:11:13.915Z,2.37
2018-07-08T11:13:43.064Z,2.70
2018-07-08T11:16:12.140Z,2.60
2018-07-08T11:18:41.236Z,2.55
2018-07-08T11:21:10.360Z,2.95
2018-07-08T11:23:39.371Z,2.75
2018-07-08T11:26:08.407Z,2.80
2018-07-08T11:28:37.496Z,2.50
2018-07-08T11:31:07.021Z,3.30
2018-07-08T11:33:36.073Z,3.00
2018-07-08T11:36:05.177Z,2.75
2018-07-08T11:38:34.569Z,2.90
2018-07-08T11:41:03.620Z,2.98
2018-07-08T11:43:32.366Z,3.35
2018-07-08T11:46:01.647Z,3.00
2018-07-08T11:48:30.690Z,3.27
2018-07-08T11:50:59.817Z,3.77
2018-07-08T11:53:28.503Z,3.52
2018-07-08T11:55:57.460Z,4.10
2018-07-08T11:58:26.691Z,4.90
2018-07-08T12:00:55.749Z,5.33
2018-07-08T12:03:24.900Z,5.05
2018-07-08T12:05:53.958Z,5.03
2018-07-08T12:08:23.004Z,5.08
2018-07-08T12:10:52.060Z,5.65
2018-07-08T12:13:20.822Z,5.42
2018-07-08T12:15:49.767Z,5.50
2018-07-08T12:18:18.811Z,5.85
2018-07-08T12:20:47.579Z,5.05
2018-07-08T12:23:16.556Z,5.62
2018-07-08T12:25:45.654Z,5.55
2018-07-08T12:28:14.664Z,4.83
2018-07-08T12:30:43.727Z,4.87
2018-07-08T12:33:12.776Z,5.42
2018-07-08T12:35:41.901Z,4.00
2018-07-08T12:38:10.943Z,5.40
2018-07-08T12:40:40.025Z,4.60
2018-07-08T12:43:09.310Z,3.80
2018-07-08T12:45:38.011Z,4.55
2018-07-08T12:48:06.977Z,3.75
2018-07-08T12:50:36.248Z,3.87
2018-07-08T12:53:05.414Z,4.65
2018-07-08T12:55:34.403Z,3.90
2018-07-08T12:58:03.453Z,3.60
2018-07-08T13:00:32.515Z,3.40
2018-07-08T13:03:01.290Z,4.33
2018-07-08T13:05:30.240Z,3.95
2018-07-08T13:07:59.270Z,3.50
2018-07-08T13:10:28.808Z,3.83
2018-07-08T13:12:58.158Z,3.95
2018-07-08T13:15:27.599Z,3.90
2018-07-08T13:17:56.711Z,3.70
2018-07-08T13:20:25.782Z,4.70
2018-07-08T13:22:54.846Z,3.90
2018-07-08T13:25:23.885Z,2.85
2018-07-08T13:27:52.987Z,3.77
2018-07-08T13:30:22.367Z,3.37
2018-07-08T13:32:51.427Z,3.70
2018-07-08T13:35:20.505Z,3.27
2018-07-08T13:37:49.547Z,3.37
2018-07-08T13:40:18.588Z,3.83
2018-07-08T13:42:47.628Z,3.98
2018-07-08T13:45:16.663Z,3.45
2018-07-08T13:47:45.723Z,4.28
2018-07-08T13:50:14.452Z,3.30
2018-07-08T13:52:43.395Z,4.00
2018-07-08T13:55:12.433Z,2.60
2018-07-08T13:57:41.471Z,3.45
2018-07-08T14:00:10.519Z,2.98
2018-07-08T14:02:39.420Z,2.70
2018-07-08T14:05:08.334Z,2.33
2018-07-08T14:07:37.383Z,2.92
2018-07-08T14:10:06.480Z,2.60
2018-07-08T14:12:35.552Z,2.52
2018-07-08T14:15:10.883Z,2.80
2018-07-08T14:17:39.893Z,3.08
2018-07-08T14:20:09.024Z,2.50
2018-07-08T14:22:38.016Z,4.10
2018-07-08T14:25:07.048Z,3.50
2018-07-08T14:27:36.236Z,2.42
2018-07-08T14:30:05.561Z,4.03
2018-07-08T14:32:34.411Z,2.12
2018-07-08T14:35:03.491Z,2.40
2018-07-08T14:37:32.519Z,2.12
2018-07-08T14:40:01.231Z,2.25
2018-07-08T14:42:30.441Z,2.42
2018-07-08T14:44:59.410Z,1.85
2018-07-08T14:47:28.059Z,2.10
2018-07-08T14:49:57.182Z,1.82
2018-07-08T14:52:25.906Z,1.60
2018-07-08T14:54:54.863Z,1.75
2018-07-08T14:57:23.905Z,1.95
2018-07-08T14:59:52.915Z,1.90
2018-07-08T15:02:21.972Z,2.27
2018-07-08T15:04:51.075Z,1.70
2018-07-08T15:07:19.752Z,1.72
2018-07-08T15:09:48.779Z,2.30
2018-07-08T15:12:17.864Z,1.50
2018-07-08T15:14:46.568Z,1.70
2018-07-08T15:17:15.523Z,6.28
2018-07-08T15:19:44.595Z,4.62
2018-07-08T15:22:13.663Z,2.55
2018-07-08T15:24:42.933Z,1.90
2018-07-08T15:27:11.975Z,1.82
2018-07-08T15:29:41.544Z,2.35
2018-07-08T15:32:10.596Z,1.95
2018-07-08T15:34:39.664Z,5.35
2018-07-08T15:37:08.668Z,2.65
2018-07-08T15:39:37.707Z,4.87
2018-07-08T15:42:06.407Z,2.00
2018-07-08T15:44:35.324Z,2.22
2018-07-08T15:47:04.673Z,2.35
2018-07-08T15:49:33.698Z,2.50
2018-07-08T15:52:02.381Z,2.85
2018-07-08T15:54:31.371Z,2.73
2018-07-08T15:57:00.083Z,2.37
2018-07-08T15:59:28.726Z,2.30
2018-07-08T16:01:57.607Z,2.10
2018-07-08T16:04:26.624Z,2.30
2018-07-08T16:06:55.736Z,2.10
2018-07-08T16:09:24.728Z,2.50
2018-07-08T16:11:53.769Z,2.10
2018-07-08T16:14:22.808Z,2.20
2018-07-08T16:16:51.875Z,2.07
2018-07-08T16:19:20.897Z,2.03
2018-07-08T16:21:50.012Z,1.70
2018-07-08T16:24:19.027Z,1.90
2018-07-08T16:26:48.305Z,2.20
2018-07-08T16:29:17.316Z,2.03
2018-07-08T16:31:46.613Z,1.80
2018-07-08T16:34:15.611Z,1.70
2018-07-08T16:36:44.661Z,1.43
2018-07-08T16:39:14.027Z,1.50
2018-07-08T16:41:43.163Z,1.75
2018-07-08T16:44:12.208Z,1.73
2018-07-08T16:46:41.299Z,2.03
2018-07-08T16:49:10.353Z,1.80
2018-07-08T16:51:39.474Z,1.87
2018-07-08T16:54:08.175Z,1.63
2018-07-08T16:56:37.771Z,1.57
2018-07-08T16:59:09.839Z,1.93
2018-07-08T17:01:39.097Z,1.60
2018-07-08T17:04:08.135Z,1.60
2018-07-08T17:06:37.147Z,1.80
2018-07-08T17:09:07.896Z,1.50
2018-07-08T17:11:37.263Z,1.90
2018-07-08T17:14:06.434Z,1.63
2018-07-08T17:16:35.899Z,1.90
2018-07-08T17:19:04.980Z,1.80
2018-07-08T17:21:34.031Z,2.20
2018-07-08T17:24:03.091Z,2.07
2018-07-08T17:26:32.243Z,1.87
2018-07-08T17:29:01.677Z,1.90
2018-07-08T17:31:30.378Z,1.70
2018-07-08T17:33:59.371Z,1.87
2018-07-08T17:36:28.076Z,2.50
2018-07-08T17:38:56.813Z,2.10
2018-07-08T17:41:25.745Z,1.93
2018-07-08T17:43:54.521Z,2.13
2018-07-08T17:46:23.496Z,2.10
2018-07-08T17:48:52.566Z,2.30
2018-07-08T17:51:21.589Z,2.03
2018-07-08T17:53:50.656Z,2.23
2018-07-08T17:56:19.727Z,2.07
2018-07-08T17:58:48.836Z,1.80
2018-07-08T18:01:18.140Z,2.10
2018-07-08T18:03:47.929Z,2.10
2018-07-08T18:06:16.995Z,1.70
2018-07-08T18:08:46.031Z,2.30
2018-07-08T18:11:15.055Z,2.20
2018-07-08T18:13:44.201Z,2.23
2018-07-08T18:16:13.218Z,2.40
2018-07-08T18:18:42.239Z,2.30
2018-07-08T18:21:10.952Z,2.00
2018-07-08T18:23:40.142Z,1.80
2018-07-08T18:26:09.157Z,2.00
2018-07-08T18:28:38.184Z,1.90
2018-07-08T18:31:07.532Z,1.63
2018-07-08T18:33:36.252Z,1.83
2018-07-08T18:36:05.216Z,1.90
2018-07-08T18:38:34.468Z,2.07
2018-07-08T18:41:04.145Z,1.80
2018-07-08T18:43:33.095Z,2.03
2018-07-08T18:46:02.122Z,1.97
2018-07-08T18:48:31.174Z,2.13
2018-07-08T18:50:59.890Z,2.03
2018-07-08T18:53:28.664Z,2.30
2018-07-08T18:55:57.594Z,1.87
2018-07-08T18:58:26.842Z,2.07
2018-07-08T19:00:55.935Z,1.97
2018-07-08T19:03:25.072Z,1.90
2018-07-08T19:05:53.759Z,1.73
2018-07-08T19:08:22.714Z,1.87
2018-07-08T19:10:51.748Z,2.30
2018-07-08T19:13:21.047Z,2.10
2018-07-08T19:15:50.083Z,2.13
2018-07-08T19:18:19.152Z,2.40
2018-07-08T19:20:48.240Z,2.30
2018-07-08T19:23:17.288Z,2.70
2018-07-08T19:25:46.321Z,2.50
2018-07-08T19:28:15.344Z,2.00
2018-07-08T19:30:44.636Z,2.30
2018-07-08T19:33:13.690Z,2.30
2018-07-08T19:35:42.735Z,2.03
2018-07-08T19:38:11.768Z,2.37
2018-07-08T19:40:40.908Z,2.10
2018-07-08T19:43:09.937Z,2.40
2018-07-08T19:45:39.113Z,2.00
2018-07-08T19:48:08.112Z,2.30
2018-07-08T19:50:37.535Z,2.07
2018-07-08T19:53:07.297Z,2.17
2018-07-08T19:55:36.356Z,2.13
2018-07-08T19:58:05.602Z,2.67
2018-07-08T20:00:34.936Z,2.37
2018-07-08T20:03:04.071Z,2.40
2018-07-08T20:05:33.176Z,2.53
2018-07-08T20:08:02.159Z,2.43
2018-07-08T20:10:31.259Z,2.63
2018-07-08T20:13:00.000Z,2.70
2018-07-08T20:15:29.000Z,2.37
2018-07-08T20:17:58.058Z,2.80
2018-07-08T20:20:27.117Z,2.40
2018-07-08T20:22:56.189Z,2.17
2018-07-08T20:25:25.246Z,2.60
2018-07-08T20:27:54.275Z,2.33
2018-07-08T20:30:23.291Z,2.13
2018-07-08T20:32:52.371Z,2.30
2018-07-08T20:35:21.454Z,2.23
2018-07-08T20:37:50.471Z,2.17
2018-07-08T20:40:19.960Z,2.10
2018-07-08T20:42:48.995Z,2.03
2018-07-08T20:45:18.300Z,2.13
2018-07-08T20:47:47.432Z,2.00
2018-07-08T20:50:16.448Z,2.10
2018-07-08T20:52:45.544Z,2.40
2018-07-08T20:55:14.583Z,2.10
2018-07-08T20:57:43.620Z,2.10
2018-07-08T21:00:13.688Z,2.20
2018-07-08T21:02:42.815Z,2.50
2018-07-08T21:05:11.891Z,2.33
2018-07-08T21:07:41.209Z,2.77
2018-07-08T21:10:10.230Z,2.33
2018-07-08T21:12:39.308Z,2.10
2018-07-08T21:15:09.199Z,2.00
2018-07-08T21:17:38.264Z,2.73
2018-07-08T21:20:07.596Z,3.07
2018-07-08T21:22:36.915Z,2.37
2018-07-08T21:25:06.596Z,2.40
2018-07-08T21:27:35.716Z,2.77
2018-07-08T21:30:04.799Z,2.67
2018-07-08T21:32:33.853Z,3.40
2018-07-08T21:35:02.887Z,3.20
2018-07-08T21:37:31.995Z,2.90
2018-07-08T21:40:00.959Z,3.37
2018-07-08T21:42:30.802Z,3.10
2018-07-08T21:44:59.897Z,2.83
2018-07-08T21:47:29.327Z,2.80
2018-07-08T21:49:58.108Z,2.67
2018-07-08T21:52:27.136Z,2.53
2018-07-08T21:54:56.232Z,2.77
2018-07-08T21:57:25.356Z,2.43
2018-07-08T21:59:54.362Z,3.13
2018-07-08T22:02:23.441Z,2.60
2018-07-08T22:04:52.481Z,2.90
2018-07-08T22:08:24.915Z,2.40
2018-07-08T22:10:53.984Z,3.27
2018-07-08T22:13:23.024Z,2.90
2018-07-08T22:15:52.100Z,2.37
2018-07-08T22:18:21.178Z,2.80
2018-07-08T22:20:49.878Z,2.43
2018-07-08T22:23:18.840Z,2.80
2018-07-08T22:25:47.891Z,2.83
2018-07-08T22:28:16.988Z,2.70
2018-07-08T22:30:46.096Z,2.63
2018-07-08T22:33:15.284Z,3.03
2018-07-08T22:35:44.761Z,2.70
2018-07-08T22:38:13.784Z,2.80
2018-07-08T22:40:43.167Z,2.60
2018-07-08T22:43:12.457Z,2.50
2018-07-08T22:45:41.951Z,2.73
2018-07-08T22:48:10.995Z,2.83
2018-07-08T22:50:40.151Z,3.00
2018-07-08T22:53:08.875Z,2.57
2018-07-08T22:55:37.523Z,2.73
2018-07-08T22:58:06.629Z,3.07
2018-07-08T23:00:46.864Z,3.23
2018-07-08T23:04:23.680Z,2.60
2018-07-08T23:06:52.751Z,2.60
2018-07-08T23:09:21.840Z,2.80
2018-07-08T23:11:50.933Z,2.70
2018-07-08T23:14:19.940Z,2.60
2018-07-08T23:16:48.983Z,2.50
2018-07-08T23:19:18.325Z,2.70
2018-07-08T23:21:47.915Z,2.90
2018-07-08T23:24:16.996Z,3.00
2018-07-08T23:26:46.149Z,2.47
2018-07-08T23:29:15.247Z,2.67
2018-07-08T23:31:44.424Z,2.80
2018-07-08T23:34:13.461Z,2.60
2018-07-08T23:36:42.751Z,2.90
2018-07-08T23:39:11.844Z,2.80
2018-07-08T23:41:41.679Z,3.00
2018-07-08T23:44:10.735Z,2.50
2018-07-08T23:46:40.011Z,2.33
2018-07-08T23:49:09.079Z,2.70
2018-07-08T23:51:38.114Z,2.63
2018-07-08T23:54:07.212Z,2.80
2018-07-08T23:56:36.703Z,2.60
2018-07-08T23:59:05.775Z,2.40
